createdAt,value
2023-05-01T00:00:33.576Z,99.90
2023-05-01T00:03:01.637Z,99.90
2023-05-01T00:05:30.198Z,99.90
2023-05-01T00:07:59.563Z,99.90
2023-05-01T00:10:27.544Z,99.90
2023-05-01T00:12:55.502Z,99.90
2023-05-01T00:15:23.586Z,99.90
2023-05-01T00:17:51.911Z,99.90
2023-05-01T00:20:20.000Z,99.90
2023-05-01T00:22:48.515Z,99.90
2023-05-01T00:25:18.076Z,99.90
2023-05-01T00:27:46.013Z,99.90
2023-05-01T00:30:14.086Z,99.90
2023-05-01T00:32:42.263Z,99.90
2023-05-01T00:35:10.730Z,99.90
2023-05-01T00:37:39.322Z,99.90
2023-05-01T00:40:09.464Z,99.90
2023-05-01T00:42:39.951Z,99.90
2023-05-01T00:45:08.962Z,99.90
2023-05-01T00:47:37.766Z,99.90
2023-05-01T00:50:06.838Z,99.90
2023-05-01T00:52:35.232Z,99.90
2023-05-01T00:55:03.241Z,99.90
2023-05-01T00:57:31.245Z,99.90
2023-05-01T01:00:00.597Z,99.90
2023-05-01T01:02:28.620Z,99.90
2023-05-01T01:04:56.669Z,99.90
2023-05-01T01:07:36.331Z,99.90
2023-05-01T01:10:18.136Z,99.90
2023-05-01T01:12:55.714Z,99.90
2023-05-01T01:15:34.175Z,99.90
2023-05-01T01:18:11.186Z,99.90
2023-05-01T01:20:46.253Z,99.90
2023-05-01T01:23:49.722Z,99.90
2023-05-01T01:26:38.425Z,99.90
2023-05-01T01:29:40.062Z,99.90
2023-05-01T01:32:23.106Z,99.90
2023-05-01T01:34:57.013Z,99.90
2023-05-01T01:37:31.443Z,99.90
2023-05-01T01:40:04.919Z,99.90
2023-05-01T01:42:37.494Z,99.90
2023-05-01T01:45:10.864Z,99.90
2023-05-01T01:47:42.482Z,99.90
2023-05-01T01:50:13.811Z,99.90
2023-05-01T01:52:43.258Z,99.90
2023-05-01T01:55:13.727Z,99.90
2023-05-01T01:57:43.948Z,99.90
2023-05-01T02:00:15.039Z,99.90
2023-05-01T02:02:47.865Z,99.90
2023-05-01T02:05:18.829Z,99.90
2023-05-01T02:07:49.556Z,99.90
2023-05-01T02:10:18.829Z,99.90
2023-05-01T02:12:49.577Z,99.90
2023-05-01T02:15:19.556Z,99.90
2023-05-01T02:17:48.762Z,99.90
2023-05-01T02:20:19.052Z,99.90
2023-05-01T02:22:49.907Z,99.90
2023-05-01T02:25:17.956Z,99.90
2023-05-01T02:27:49.095Z,99.90
2023-05-01T02:30:18.703Z,99.90
2023-05-01T02:32:46.749Z,99.90
2023-05-01T02:35:15.017Z,99.90
2023-05-01T02:37:44.792Z,99.90
2023-05-01T02:40:14.975Z,99.90
2023-05-01T02:42:44.797Z,99.90
2023-05-01T02:45:21.597Z,99.90
2023-05-01T02:47:52.854Z,99.90
2023-05-01T02:50:22.205Z,99.90
2023-05-01T02:52:52.198Z,99.90
2023-05-01T02:55:36.750Z,99.90
2023-05-01T02:58:04.712Z,99.90
2023-05-01T03:00:32.696Z,99.90
2023-05-01T03:03:00.735Z,99.90
2023-05-01T03:05:28.740Z,99.90
2023-05-01T03:07:58.076Z,99.90
2023-05-01T03:10:26.137Z,99.90
2023-05-01T03:12:54.088Z,99.90
2023-05-01T03:15:22.161Z,99.90
2023-05-01T03:17:50.265Z,99.90
2023-05-01T03:20:18.346Z,99.90
2023-05-01T03:22:46.322Z,99.90
2023-05-01T03:25:15.868Z,99.90
2023-05-01T03:27:43.875Z,99.90
2023-05-01T03:30:12.963Z,99.90
2023-05-01T03:32:43.044Z,99.90
2023-05-01T03:35:19.149Z,99.90
2023-05-01T03:37:47.332Z,99.90
2023-05-01T03:40:25.707Z,99.90
2023-05-01T03:43:16.509Z,99.90
2023-05-01T03:45:44.997Z,99.90
2023-05-01T03:48:13.744Z,99.90
2023-05-01T03:50:42.597Z,99.90
2023-05-01T03:53:10.671Z,99.90
2023-05-01T03:55:40.963Z,99.90
2023-05-01T03:58:10.549Z,99.90
2023-05-01T04:00:38.690Z,99.90
2023-05-01T04:03:07.065Z,99.90
2023-05-01T04:05:37.275Z,99.90
2023-05-01T04:08:05.718Z,99.90
2023-05-01T04:10:33.664Z,99.90
2023-05-01T04:13:07.969Z,99.90
2023-05-01T04:15:36.436Z,99.90
2023-05-01T04:18:04.616Z,99.90
2023-05-01T04:20:34.044Z,99.90
2023-05-01T04:23:01.998Z,99.90
2023-05-01T04:25:30.012Z,99.90
2023-05-01T04:28:04.281Z,99.90
2023-05-01T04:30:33.882Z,99.90
2023-05-01T04:33:01.957Z,99.90
2023-05-01T04:35:30.816Z,99.90
2023-05-01T04:37:58.888Z,99.90
2023-05-01T04:40:26.913Z,99.90
2023-05-01T04:42:54.893Z,99.90
2023-05-01T04:45:22.884Z,99.90
2023-05-01T04:47:52.643Z,99.90
2023-05-01T04:50:21.435Z,99.90
2023-05-01T04:52:49.491Z,99.90
2023-05-01T04:55:18.160Z,99.90
2023-05-01T04:58:03.604Z,99.90
2023-05-01T05:00:31.733Z,99.90
2023-05-01T05:03:01.321Z,99.90
2023-05-01T05:05:29.655Z,99.90
2023-05-01T05:07:58.155Z,99.90
2023-05-01T05:10:33.808Z,99.90
2023-05-01T05:13:22.054Z,99.90
2023-05-01T05:15:57.536Z,99.90
2023-05-01T05:18:27.397Z,99.90
2023-05-01T05:20:56.249Z,99.90
2023-05-01T05:23:24.317Z,99.90
2023-05-01T05:25:52.283Z,99.90
2023-05-01T05:28:20.878Z,99.90
2023-05-01T05:30:49.110Z,99.90
2023-05-01T05:33:20.572Z,99.90
2023-05-01T05:35:50.570Z,99.90
2023-05-01T05:38:19.090Z,99.90
2023-05-01T05:40:50.080Z,99.90
2023-05-01T05:43:18.465Z,99.90
2023-05-01T05:45:46.540Z,99.90
2023-05-01T05:48:14.666Z,99.90
2023-05-01T05:50:42.724Z,99.90
2023-05-01T05:53:13.766Z,99.90
2023-05-01T05:55:45.317Z,99.90
2023-05-01T05:58:14.424Z,99.90
2023-05-01T06:00:43.139Z,99.90
2023-05-01T06:03:12.608Z,99.90
2023-05-01T06:05:40.942Z,99.90
2023-05-01T06:08:10.304Z,99.90
2023-05-01T06:10:41.209Z,99.90
2023-05-01T06:13:13.343Z,99.90
2023-05-01T06:15:46.231Z,99.90
2023-05-01T06:18:14.415Z,99.90
2023-05-01T06:20:42.717Z,99.90
2023-05-01T06:23:10.725Z,99.90
2023-05-01T06:25:45.191Z,99.90
2023-05-01T06:28:13.143Z,99.90
2023-05-01T06:30:41.244Z,99.90
2023-05-01T06:33:09.827Z,99.90
2023-05-01T06:35:40.278Z,99.90
2023-05-01T06:38:08.460Z,99.90
2023-05-01T06:40:36.524Z,99.90
2023-05-01T06:43:06.100Z,99.90
2023-05-01T06:45:34.089Z,99.90
2023-05-01T06:48:02.355Z,99.90
2023-05-01T06:50:30.387Z,99.90
2023-05-01T06:53:01.041Z,99.90
2023-05-01T06:55:31.493Z,99.90
2023-05-01T06:58:02.707Z,99.90
2023-05-01T07:00:36.676Z,99.90
2023-05-01T07:03:05.155Z,99.90
2023-05-01T07:05:33.173Z,99.90
2023-05-01T07:08:01.944Z,99.90
2023-05-01T07:10:30.752Z,99.90
2023-05-01T07:12:58.791Z,99.90
2023-05-01T07:15:26.844Z,99.90
2023-05-01T07:17:58.288Z,99.90
2023-05-01T07:20:26.773Z,99.90
2023-05-01T07:22:54.734Z,99.90
2023-05-01T07:25:22.943Z,99.90
2023-05-01T07:27:50.898Z,99.90
2023-05-01T07:30:18.955Z,99.90
2023-05-01T07:32:47.152Z,99.90
2023-05-01T07:35:16.644Z,99.90
2023-05-01T07:37:44.635Z,99.90
2023-05-01T07:40:13.309Z,99.90
2023-05-01T07:42:41.282Z,99.90
2023-05-01T07:45:10.066Z,99.90
2023-05-01T07:47:38.115Z,99.90
2023-05-01T07:50:10.582Z,99.90
2023-05-01T07:52:40.402Z,99.90
2023-05-01T07:55:09.786Z,99.90
2023-05-01T07:57:38.626Z,99.90
2023-05-01T08:00:07.831Z,99.90
2023-05-01T08:02:42.170Z,99.90
2023-05-01T08:05:10.655Z,99.90
2023-05-01T08:07:40.057Z,99.90
2023-05-01T08:10:09.041Z,99.90
2023-05-01T08:12:37.052Z,99.90
2023-05-01T08:15:06.215Z,99.90
2023-05-01T08:17:34.310Z,99.90
2023-05-01T08:20:02.348Z,99.90
2023-05-01T08:22:30.340Z,99.20
2023-05-01T08:24:59.697Z,99.40
2023-05-01T08:27:27.812Z,99.20
2023-05-01T08:29:55.961Z,99.40
2023-05-01T08:32:24.188Z,99.20
2023-05-01T08:34:52.310Z,99.90
2023-05-01T08:37:23.140Z,99.50
2023-05-01T08:39:51.104Z,99.10
2023-05-01T08:42:20.949Z,99.70
2023-05-01T08:44:50.943Z,99.60
2023-05-01T08:47:19.698Z,99.50
2023-05-01T08:49:50.727Z,99.60
2023-05-01T08:52:20.821Z,99.10
2023-05-01T08:54:51.552Z,97.80
2023-05-01T08:57:22.050Z,97.50
2023-05-01T08:59:53.410Z,96.80
2023-05-01T09:02:24.142Z,96.60
2023-05-01T09:04:53.611Z,96.80
2023-05-01T09:07:21.998Z,96.20
2023-05-01T09:09:49.980Z,97.20
2023-05-01T09:12:26.321Z,95.70
2023-05-01T09:14:55.595Z,95.30
2023-05-01T09:17:25.105Z,94.40
2023-05-01T09:19:54.313Z,95.10
2023-05-01T09:22:22.681Z,95.40
2023-05-01T09:24:50.747Z,93.90
2023-05-01T09:27:21.475Z,94.30
2023-05-01T09:29:50.837Z,94.20
2023-05-01T09:32:21.460Z,93.30
2023-05-01T09:34:50.645Z,93.80
2023-05-01T09:37:29.041Z,93.60
2023-05-01T09:40:08.688Z,92.60
2023-05-01T09:42:38.293Z,92.20
2023-05-01T09:45:14.266Z,91.00
2023-05-01T09:47:43.905Z,90.70
2023-05-01T09:50:29.372Z,90.20
2023-05-01T09:52:57.451Z,88.60
2023-05-01T09:55:26.043Z,88.50
2023-05-01T09:57:54.160Z,86.50
2023-05-01T10:00:23.575Z,83.80
2023-05-01T10:02:52.417Z,85.70
2023-05-01T10:05:20.738Z,83.50
2023-05-01T10:08:00.303Z,84.70
2023-05-01T10:10:28.735Z,85.90
2023-05-01T10:12:56.680Z,83.50
2023-05-01T10:15:37.783Z,83.70
2023-05-01T10:18:06.109Z,85.40
2023-05-01T10:20:34.110Z,86.50
2023-05-01T10:23:03.215Z,87.60
2023-05-01T10:25:33.702Z,89.60
2023-05-01T10:28:04.774Z,88.80
2023-05-01T10:30:36.985Z,86.10
2023-05-01T10:33:06.338Z,87.40
2023-05-01T10:35:38.166Z,88.10
2023-05-01T10:38:08.023Z,88.90
2023-05-01T10:40:46.937Z,89.40
2023-05-01T10:43:28.480Z,88.70
2023-05-01T10:46:30.885Z,88.30
2023-05-01T10:48:59.337Z,87.80
2023-05-01T10:51:28.634Z,87.30
2023-05-01T10:54:24.602Z,83.30
2023-05-01T10:56:52.636Z,84.40
2023-05-01T10:59:20.936Z,82.60
2023-05-01T11:01:53.067Z,81.60
2023-05-01T11:04:50.849Z,79.70
2023-05-01T11:07:20.037Z,78.60
2023-05-01T11:09:51.249Z,76.50
2023-05-01T11:12:55.204Z,75.70
2023-05-01T11:15:30.676Z,73.10
2023-05-01T11:18:01.206Z,71.70
2023-05-01T11:20:51.925Z,69.60
2023-05-01T11:23:21.846Z,68.60
2023-05-01T11:25:51.754Z,68.60
2023-05-01T11:28:23.703Z,71.00
2023-05-01T11:30:52.820Z,69.50
2023-05-01T11:33:27.586Z,69.80
2023-05-01T11:36:00.588Z,70.30
2023-05-01T11:38:28.795Z,72.40
2023-05-01T11:41:00.928Z,70.80
2023-05-01T11:43:29.417Z,69.80
2023-05-01T11:46:02.333Z,70.50
2023-05-01T11:48:32.657Z,72.80
2023-05-01T11:51:00.727Z,74.90
2023-05-01T11:53:29.031Z,72.20
2023-05-01T11:55:57.049Z,71.30
2023-05-01T11:58:37.816Z,71.90
2023-05-01T12:01:07.311Z,71.90
2023-05-01T12:03:44.108Z,71.90
2023-05-01T12:06:13.655Z,72.80
2023-05-01T12:08:50.320Z,72.90
2023-05-01T12:11:20.542Z,70.60
2023-05-01T12:13:50.175Z,72.60
2023-05-01T12:16:18.401Z,72.10
2023-05-01T12:18:48.206Z,73.50
2023-05-01T12:21:19.771Z,73.80
2023-05-01T12:23:47.781Z,70.30
2023-05-01T12:26:18.905Z,72.60
2023-05-01T12:28:57.310Z,73.50
2023-05-01T12:31:26.373Z,74.50
2023-05-01T12:33:57.448Z,74.00
2023-05-01T12:36:27.448Z,74.30
2023-05-01T12:39:03.387Z,75.20
2023-05-01T12:41:38.768Z,76.80
2023-05-01T12:44:23.539Z,76.60
2023-05-01T12:46:55.883Z,76.20
2023-05-01T12:49:25.547Z,76.50
2023-05-01T12:51:54.899Z,76.50
2023-05-01T12:54:24.614Z,74.70
2023-05-01T12:56:53.369Z,75.80
2023-05-01T12:59:25.163Z,75.40
2023-05-01T13:02:00.362Z,76.10
2023-05-01T13:04:30.262Z,71.80
2023-05-01T13:06:59.108Z,72.00
2023-05-01T13:09:30.820Z,71.20
2023-05-01T13:12:00.446Z,70.10
2023-05-01T13:14:28.555Z,65.20
2023-05-01T13:16:56.803Z,66.20
2023-05-01T13:19:30.567Z,62.30
2023-05-01T13:21:59.154Z,62.70
2023-05-01T13:24:37.470Z,65.00
2023-05-01T13:27:05.751Z,66.10
2023-05-01T13:29:33.971Z,62.80
2023-05-01T13:32:02.163Z,59.40
2023-05-01T13:34:33.487Z,60.10
2023-05-01T13:37:03.347Z,64.80
2023-05-01T13:39:31.395Z,63.70
2023-05-01T13:41:59.417Z,66.60
2023-05-01T13:44:28.238Z,67.50
2023-05-01T13:46:56.236Z,71.50
2023-05-01T13:49:24.550Z,71.00
2023-05-01T13:51:55.455Z,73.00
2023-05-01T13:54:23.529Z,73.60
2023-05-01T13:56:52.588Z,72.50
2023-05-01T13:59:20.569Z,72.00
2023-05-01T14:01:48.755Z,71.80
2023-05-01T14:04:21.024Z,72.50
2023-05-01T14:06:49.758Z,72.30
2023-05-01T14:09:19.697Z,73.80
2023-05-01T14:11:49.299Z,74.70
2023-05-01T14:14:18.630Z,77.30
2023-05-01T14:16:52.021Z,79.30
2023-05-01T14:19:20.212Z,82.30
2023-05-01T14:21:48.177Z,85.90
2023-05-01T14:24:18.634Z,90.50
2023-05-01T14:26:50.112Z,94.70
2023-05-01T14:29:27.132Z,97.50
2023-05-01T14:31:56.580Z,99.50
2023-05-01T14:34:26.306Z,99.90
2023-05-01T14:36:56.322Z,99.90
2023-05-01T14:39:24.319Z,99.90
2023-05-01T14:41:54.716Z,99.90
2023-05-01T14:44:26.906Z,99.90
2023-05-01T14:46:55.087Z,99.90
2023-05-01T14:49:25.606Z,99.90
2023-05-01T14:51:54.689Z,99.90
2023-05-01T14:54:22.632Z,99.90
2023-05-01T14:56:50.612Z,99.90
2023-05-01T14:59:19.899Z,99.90
2023-05-01T15:01:47.863Z,99.90
2023-05-01T15:04:16.031Z,99.90
2023-05-01T15:06:44.226Z,99.90
2023-05-01T15:09:12.725Z,99.90
2023-05-01T15:11:40.723Z,99.90
2023-05-01T15:14:08.701Z,99.90
2023-05-01T15:16:38.029Z,99.90
2023-05-01T15:19:05.980Z,99.90
2023-05-01T15:21:33.908Z,99.90
2023-05-01T15:24:01.939Z,99.90
2023-05-01T15:26:29.888Z,99.90
2023-05-01T15:28:58.574Z,99.90
2023-05-01T15:31:26.558Z,99.90
2023-05-01T15:33:55.871Z,99.90
2023-05-01T15:36:23.850Z,99.90
2023-05-01T15:38:52.233Z,99.90
2023-05-01T15:41:20.214Z,99.90
2023-05-01T15:43:48.219Z,99.90
2023-05-01T15:46:16.270Z,99.90
2023-05-01T15:48:44.436Z,99.90
2023-05-01T15:51:13.739Z,99.90
2023-05-01T15:53:41.688Z,99.90
2023-05-01T15:56:10.645Z,99.90
2023-05-01T15:58:38.612Z,99.90
2023-05-01T16:01:08.848Z,99.90
2023-05-01T16:03:37.123Z,99.90
2023-05-01T16:06:05.503Z,99.90
2023-05-01T16:08:35.089Z,99.90
2023-05-01T16:11:04.373Z,99.90
2023-05-01T16:13:32.512Z,99.90
2023-05-01T16:16:00.467Z,99.90
2023-05-01T16:18:28.432Z,99.90
2023-05-01T16:20:56.897Z,99.90
2023-05-01T16:23:27.141Z,99.90
2023-05-01T16:25:56.478Z,99.90
2023-05-01T16:28:26.190Z,99.90
2023-05-01T16:30:54.160Z,99.90
2023-05-01T16:33:23.338Z,99.90
2023-05-01T16:35:51.728Z,99.90
2023-05-01T16:38:20.166Z,99.90
2023-05-01T16:40:49.056Z,99.90
2023-05-01T16:43:18.399Z,99.90
2023-05-01T16:45:46.986Z,99.90
2023-05-01T16:48:20.443Z,99.90
2023-05-01T16:50:48.547Z,99.90
2023-05-01T16:53:16.573Z,99.90
2023-05-01T16:55:44.853Z,99.90
2023-05-01T16:58:12.920Z,99.90
2023-05-01T17:00:43.250Z,99.90
2023-05-01T17:03:11.316Z,99.90
2023-05-01T17:05:39.337Z,99.90
2023-05-01T17:08:07.344Z,99.90
2023-05-01T17:10:35.370Z,99.90
2023-05-01T17:13:03.302Z,99.90
2023-05-01T17:15:31.302Z,99.90
2023-05-01T17:18:00.647Z,99.90
2023-05-01T17:20:28.707Z,99.90
2023-05-01T17:22:56.733Z,99.90
2023-05-01T17:25:24.701Z,99.90
2023-05-01T17:27:52.708Z,99.90
2023-05-01T17:30:20.826Z,99.90
2023-05-01T17:32:49.219Z,99.90
2023-05-01T17:35:18.808Z,99.90
2023-05-01T17:37:46.783Z,99.90
2023-05-01T17:40:14.936Z,99.90
2023-05-01T17:42:42.926Z,99.90
2023-05-01T17:45:11.933Z,99.90
2023-05-01T17:47:41.649Z,99.90
2023-05-01T17:50:11.989Z,99.90
2023-05-01T17:52:42.006Z,99.90
2023-05-01T17:55:10.952Z,99.90
2023-05-01T17:57:40.493Z,99.90
2023-05-01T18:00:10.998Z,99.90
2023-05-01T18:02:44.662Z,99.90
2023-05-01T18:05:13.028Z,99.90
2023-05-01T18:07:42.375Z,99.90
2023-05-01T18:10:11.316Z,99.90
2023-05-01T18:12:39.416Z,99.90
2023-05-01T18:15:08.072Z,99.90
2023-05-01T18:17:36.068Z,99.90
2023-05-01T18:20:04.183Z,99.90
2023-05-01T18:22:32.177Z,99.90
2023-05-01T18:25:01.514Z,99.90
2023-05-01T18:27:29.551Z,99.90
2023-05-01T18:29:57.811Z,99.90
2023-05-01T18:32:35.769Z,99.90
2023-05-01T18:35:14.365Z,99.90
2023-05-01T18:37:43.984Z,99.90
2023-05-01T18:40:14.444Z,99.90
2023-05-01T18:42:42.933Z,99.90
2023-05-01T18:45:11.532Z,99.90
2023-05-01T18:47:39.649Z,99.90
2023-05-01T18:50:09.125Z,99.90
2023-05-01T18:52:37.721Z,99.90
2023-05-01T18:55:06.331Z,99.90
2023-05-01T18:57:36.059Z,99.90
2023-05-01T19:00:04.740Z,99.90
2023-05-01T19:02:32.831Z,99.90
2023-05-01T19:05:00.930Z,99.90
2023-05-01T19:07:29.062Z,99.90
2023-05-01T19:09:57.553Z,99.90
2023-05-01T19:12:25.670Z,99.90
2023-05-01T19:14:55.146Z,99.90
2023-05-01T19:17:23.134Z,99.90
2023-05-01T19:19:51.164Z,99.90
2023-05-01T19:22:19.440Z,99.90
2023-05-01T19:24:47.466Z,99.90
2023-05-01T19:27:15.660Z,99.90
2023-05-01T19:29:43.612Z,99.90
2023-05-01T19:32:13.054Z,99.90
2023-05-01T19:34:41.184Z,99.90
2023-05-01T19:37:09.321Z,99.90
2023-05-01T19:39:37.269Z,99.90
2023-05-01T19:42:05.340Z,99.90
2023-05-01T19:44:33.351Z,99.90
2023-05-01T19:47:01.815Z,99.90
2023-05-01T19:49:31.136Z,99.90
2023-05-01T19:51:59.411Z,99.90
2023-05-01T19:54:27.482Z,99.90
2023-05-01T19:56:55.971Z,99.90
2023-05-01T19:59:24.233Z,99.90
2023-05-01T20:01:52.519Z,99.90
2023-05-01T20:04:22.917Z,99.90
2023-05-01T20:06:52.588Z,99.90
2023-05-01T20:09:20.612Z,99.90
2023-05-01T20:11:48.651Z,99.90
2023-05-01T20:14:16.600Z,99.90
2023-05-01T20:16:44.729Z,99.90
2023-05-01T20:19:12.882Z,99.90
2023-05-01T20:21:41.000Z,99.90
2023-05-01T20:24:10.319Z,99.90
2023-05-01T20:26:38.339Z,99.90
2023-05-01T20:29:06.279Z,99.90
2023-05-01T20:31:34.730Z,99.90
2023-05-01T20:34:02.962Z,99.90
2023-05-01T20:36:30.867Z,99.90
2023-05-01T20:38:58.874Z,99.90
2023-05-01T20:41:29.137Z,99.90
2023-05-01T20:43:57.144Z,99.90
2023-05-01T20:46:25.281Z,99.90
2023-05-01T20:48:54.208Z,99.90
2023-05-01T20:51:22.279Z,99.90
2023-05-01T20:53:50.459Z,99.90
2023-05-01T20:56:18.372Z,99.90
2023-05-01T20:58:47.682Z,99.90
2023-05-01T21:01:15.696Z,99.90
2023-05-01T21:03:43.699Z,99.90
2023-05-01T21:06:11.756Z,99.90
2023-05-01T21:08:39.673Z,99.90
2023-05-01T21:11:07.566Z,99.90
2023-05-01T21:13:35.531Z,99.90
2023-05-01T21:16:07.306Z,99.90
2023-05-01T21:18:36.241Z,99.90
2023-05-01T21:21:04.327Z,99.90
2023-05-01T21:23:32.268Z,99.90
2023-05-01T21:26:00.240Z,99.90
2023-05-01T21:28:28.352Z,99.90
2023-05-01T21:30:56.474Z,99.90
2023-05-01T21:33:26.024Z,99.90
2023-05-01T21:35:54.015Z,99.90
2023-05-01T21:38:22.003Z,99.90
2023-05-01T21:40:50.089Z,99.90
2023-05-01T21:43:20.518Z,99.90
2023-05-01T21:45:48.922Z,99.90
2023-05-01T21:48:17.663Z,99.90
2023-05-01T21:50:50.627Z,99.90
2023-05-01T21:53:18.615Z,99.90
2023-05-01T21:55:47.334Z,99.90
2023-05-01T21:58:15.254Z,99.90
2023-05-01T22:00:43.271Z,99.90
2023-05-01T22:03:11.430Z,99.90
2023-05-01T22:05:41.040Z,99.90
2023-05-01T22:08:10.627Z,99.90
2023-05-01T22:10:38.561Z,99.90
2023-05-01T22:13:06.574Z,99.90
2023-05-01T22:15:34.639Z,99.90
2023-05-01T22:18:02.612Z,99.90
2023-05-01T22:20:31.007Z,99.90
2023-05-01T22:22:58.926Z,99.90
2023-05-01T22:25:28.673Z,99.90
2023-05-01T22:27:56.666Z,99.90
2023-05-01T22:30:24.588Z,99.90
2023-05-01T22:32:52.704Z,99.90
2023-05-01T22:35:20.673Z,99.90
2023-05-01T22:37:48.629Z,99.90
2023-05-01T22:40:16.659Z,99.90
2023-05-01T22:42:46.957Z,99.90
2023-05-01T22:45:15.030Z,99.90
2023-05-01T22:47:43.043Z,99.90
2023-05-01T22:50:11.940Z,99.90
2023-05-01T22:52:40.258Z,99.90
2023-05-01T22:55:08.812Z,99.90
2023-05-01T22:57:36.801Z,99.90
2023-05-01T23:00:07.988Z,99.90
2023-05-01T23:02:36.317Z,99.90
2023-05-01T23:05:04.668Z,99.90
2023-05-01T23:07:32.612Z,99.90
2023-05-01T23:10:02.216Z,99.90
2023-05-01T23:12:30.427Z,99.90
2023-05-01T23:14:58.451Z,99.90
2023-05-01T23:17:35.130Z,99.90
2023-05-01T23:20:03.513Z,99.90
2023-05-01T23:22:31.561Z,99.90
2023-05-01T23:24:59.542Z,99.90
2023-05-01T23:27:27.657Z,99.90
2023-05-01T23:29:57.896Z,99.90
2023-05-01T23:32:29.353Z,99.90
2023-05-01T23:35:01.850Z,99.90
2023-05-01T23:37:29.813Z,99.90
2023-05-01T23:39:59.636Z,99.90
2023-05-01T23:42:28.068Z,99.90
2023-05-01T23:44:56.351Z,99.90
2023-05-01T23:47:24.471Z,99.90
2023-05-01T23:49:54.168Z,99.90
2023-05-01T23:52:22.231Z,99.90
2023-05-01T23:54:53.121Z,99.90
2023-05-01T23:57:21.091Z,99.90
2023-05-01T23:59:49.050Z,99.90
